Time;durP1;ratioP1;P1;durP2;ratioP2;P2;SDS_P1;SDS_P2;PMS_P1;PMS_P2;Temp;Humidity;BMP_temperature;BMP_pressure;BME280_temperature;BME280_humidity;BME280_pressure;Samples;Min_cycle;Max_cycle;Signal;HPM_P1;HPM_P2
2021/05/09 00:00:38;;;;;;;9.88;7.75;;;13.30;93.30;;;;;;5020866;28;20048;-72
2021/05/09 00:03:04;;;;;;;10.50;7.70;;;13.30;93.30;;;;;;5014309;28;20091;-71
2021/05/09 00:05:30;;;;;;;10.73;7.43;;;13.30;93.40;;;;;;4999347;28;20033;-71
2021/05/09 00:07:56;;;;;;;10.27;7.40;;;13.20;93.50;;;;;;5004403;28;20037;-72
2021/05/09 00:10:23;;;;;;;10.75;7.57;;;13.20;93.50;;;;;;5011278;28;20073;-71
2021/05/09 00:12:51;;;;;;;12.00;8.18;;;13.20;93.50;;;;;;4993210;28;20052;-71
2021/05/09 00:15:21;;;;;;;9.75;7.85;;;13.20;93.50;;;;;;4986832;28;20543;-72
2021/05/09 00:17:47;;;;;;;8.73;7.53;;;13.20;93.60;;;;;;5006843;28;20068;-72
2021/05/09 00:20:13;;;;;;;9.40;7.90;;;13.10;93.60;;;;;;5021518;28;20077;-72
2021/05/09 00:22:39;;;;;;;11.77;7.80;;;13.10;93.70;;;;;;4987966;28;20037;-72
2021/05/09 00:25:07;;;;;;;10.85;7.60;;;13.10;93.70;;;;;;5039432;28;21518;-71
2021/05/09 00:27:42;;;;;;;11.48;7.85;;;13.00;93.70;;;;;;5024835;28;20046;-71
2021/05/09 00:30:10;;;;;;;11.07;7.35;;;13.00;93.70;;;;;;5027895;28;20041;-72
2021/05/09 00:32:36;;;;;;;10.35;7.47;;;13.00;93.70;;;;;;5027533;28;20041;-71
2021/05/09 00:35:02;;;;;;;11.73;7.35;;;12.90;93.80;;;;;;5025553;28;20047;-72
2021/05/09 00:37:30;;;;;;;11.48;8.52;;;12.90;93.80;;;;;;4975175;28;20058;-71
2021/05/09 00:39:56;;;;;;;11.30;8.07;;;12.90;93.90;;;;;;5000989;28;20508;-71
2021/05/09 00:42:22;;;;;;;9.43;8.32;;;12.90;93.90;;;;;;5013035;28;20037;-71
2021/05/09 00:44:48;;;;;;;12.10;8.32;;;12.90;93.80;;;;;;5029768;28;20057;-72
2021/05/09 00:47:14;;;;;;;11.27;8.45;;;12.80;93.80;;;;;;5024001;28;20124;-72
2021/05/09 00:49:41;;;;;;;10.95;7.53;;;12.80;93.90;;;;;;5015651;28;20040;-72
2021/05/09 00:52:09;;;;;;;11.57;7.38;;;12.80;93.90;;;;;;5015354;28;20139;-72
2021/05/09 00:54:50;;;;;;;12.50;8.80;;;12.80;94.00;;;;;;5025808;28;20064;-72
2021/05/09 00:57:18;;;;;;;10.35;6.65;;;12.70;94.30;;;;;;5027107;28;20168;-72
2021/05/09 00:59:46;;;;;;;9.77;7.18;;;12.70;93.90;;;;;;5031997;28;20034;-72
2021/05/09 01:02:13;;;;;;;10.93;7.05;;;12.70;94.00;;;;;;5034889;28;20435;-71
2021/05/09 01:04:41;;;;;;;11.07;7.55;;;12.60;94.10;;;;;;5015911;28;20041;-72
2021/05/09 01:07:07;;;;;;;11.43;7.50;;;12.60;94.10;;;;;;5017221;28;20076;-71
2021/05/09 01:09:51;;;;;;;11.85;8.15;;;12.50;94.10;;;;;;5030309;28;20034;-72
2021/05/09 01:12:18;;;;;;;7.18;6.47;;;12.50;94.20;;;;;;5025834;28;20244;-72
2021/05/09 01:14:44;;;;;;;12.02;8.07;;;12.40;94.20;;;;;;5009187;28;20045;-73
2021/05/09 01:17:11;;;;;;;11.02;7.88;;;12.40;94.30;;;;;;4995468;28;20041;-72
2021/05/09 01:19:39;;;;;;;11.20;8.20;;;12.40;94.40;;;;;;5031761;28;20052;-72
2021/05/09 01:22:12;;;;;;;11.55;7.72;;;12.30;94.40;;;;;;5028167;28;20076;-72
2021/05/09 01:24:39;;;;;;;11.20;6.93;;;12.30;94.40;;;;;;5020341;28;20053;-72
2021/05/09 01:27:06;;;;;;;10.30;7.05;;;12.30;94.50;;;;;;5005615;28;20039;-72
2021/05/09 01:29:35;;;;;;;12.55;7.80;;;12.30;94.40;;;;;;4984459;28;20038;-72
2021/05/09 01:32:02;;;;;;;12.90;7.97;;;12.30;94.30;;;;;;5005514;28;20060;-72
2021/05/09 01:34:36;;;;;;;10.77;7.18;;;12.20;94.40;;;;;;5014655;28;20050;-71
2021/05/09 01:37:03;;;;;;;8.82;7.38;;;12.20;94.50;;;;;;4997803;28;20042;-72
2021/05/09 01:39:36;;;;;;;10.52;7.25;;;12.20;94.50;;;;;;5031173;28;20053;-72
2021/05/09 01:42:05;;;;;;;9.13;7.30;;;12.20;94.50;;;;;;5015357;28;20045;-74
2021/05/09 01:44:57;;;;;;;10.43;7.30;;;12.20;94.50;;;;;;5008758;28;20049;-72
2021/05/09 01:47:24;;;;;;;10.82;8.48;;;12.10;94.50;;;;;;5012233;28;20050;-71
2021/05/09 01:49:51;;;;;;;10.73;7.30;;;12.10;94.60;;;;;;5013793;28;20034;-72
2021/05/09 01:52:18;;;;;;;12.18;7.78;;;12.10;94.50;;;;;;4989193;28;20030;-72
2021/05/09 01:54:44;;;;;;;10.05;7.65;;;12.10;94.60;;;;;;5002374;28;20046;-72
2021/05/09 01:57:11;;;;;;;9.80;7.63;;;12.10;94.60;;;;;;5009009;28;20056;-72
2021/05/09 01:59:36;;;;;;;10.10;7.55;;;12.10;94.50;;;;;;5004899;28;20048;-71
2021/05/09 02:02:03;;;;;;;11.48;7.38;;;12.10;94.50;;;;;;4980742;28;20042;-72
2021/05/09 02:04:35;;;;;;;10.90;7.70;;;12.00;94.50;;;;;;5006891;28;20066;-72
2021/05/09 02:07:21;;;;;;;10.25;8.15;;;12.10;94.60;;;;;;4997530;28;20720;-72
2021/05/09 02:09:46;;;;;;;9.80;7.72;;;12.00;94.50;;;;;;4998673;28;20034;-72
2021/05/09 02:12:13;;;;;;;10.77;7.80;;;12.10;94.50;;;;;;5011130;28;20138;-72
2021/05/09 02:14:39;;;;;;;10.27;8.15;;;12.00;94.40;;;;;;5002750;28;20038;-71
2021/05/09 02:17:06;;;;;;;10.82;8.15;;;12.00;94.50;;;;;;4991485;28;20048;-72
2021/05/09 02:19:34;;;;;;;12.40;8.07;;;12.00;94.80;;;;;;5006394;28;20046;-72
2021/05/09 02:22:06;;;;;;;11.73;8.05;;;12.00;94.40;;;;;;4981026;28;20120;-72
2021/05/09 02:24:32;;;;;;;10.43;7.35;;;12.00;94.40;;;;;;5016543;28;20053;-72
2021/05/09 02:27:00;;;;;;;10.25;7.30;;;12.00;94.40;;;;;;5003181;28;20109;-71
2021/05/09 02:29:27;;;;;;;13.20;8.48;;;12.00;94.40;;;;;;5001425;28;20055;-72
2021/05/09 02:31:52;;;;;;;14.65;8.10;;;12.00;94.40;;;;;;4980486;28;20553;-72
2021/05/09 02:34:19;;;;;;;12.85;8.18;;;12.00;94.30;;;;;;5003865;28;20072;-72
2021/05/09 02:36:45;;;;;;;11.05;8.07;;;12.00;94.30;;;;;;4997280;28;20066;-71
2021/05/09 02:39:12;;;;;;;10.90;8.02;;;11.90;94.20;;;;;;5019411;28;20378;-72
2021/05/09 02:41:38;;;;;;;13.27;7.78;;;11.90;94.30;;;;;;4984399;28;20042;-72
2021/05/09 02:44:05;;;;;;;9.40;7.50;;;11.90;94.30;;;;;;4988183;28;20416;-72
2021/05/09 02:46:31;;;;;;;12.93;8.00;;;11.90;94.30;;;;;;5018415;28;20224;-71
2021/05/09 02:49:00;;;;;;;10.60;7.75;;;11.90;94.30;;;;;;4989484;28;20397;-71
2021/05/09 02:51:26;;;;;;;9.30;7.68;;;11.90;94.30;;;;;;5001232;28;20073;-71
2021/05/09 02:53:52;;;;;;;9.38;7.10;;;11.80;94.30;;;;;;4998827;28;20065;-71
2021/05/09 02:56:18;;;;;;;9.50;7.35;;;11.70;94.30;;;;;;5021413;28;20520;-71
2021/05/09 02:58:46;;;;;;;11.85;7.75;;;11.70;94.40;;;;;;5010947;28;20072;-71
2021/05/09 03:01:12;;;;;;;10.45;7.47;;;11.70;94.50;;;;;;4988791;28;20094;-72
2021/05/09 03:03:38;;;;;;;10.52;7.75;;;11.70;94.40;;;;;;5007976;28;20049;-71
2021/05/09 03:06:05;;;;;;;13.80;8.05;;;11.70;94.50;;;;;;5008377;28;20041;-72
2021/05/09 03:08:30;;;;;;;9.65;7.25;;;11.70;94.40;;;;;;4988237;28;20068;-71
2021/05/09 03:10:58;;;;;;;10.65;7.32;;;11.70;94.40;;;;;;5009527;28;20049;-71
2021/05/09 03:13:24;;;;;;;9.45;7.75;;;11.80;94.40;;;;;;4990878;28;20045;-71
2021/05/09 03:15:50;;;;;;;9.43;7.35;;;11.80;94.40;;;;;;4958468;28;20137;-71
2021/05/09 03:18:16;;;;;;;14.68;8.38;;;11.70;94.30;;;;;;4971589;28;20042;-71
2021/05/09 03:20:42;;;;;;;10.85;7.40;;;11.70;94.40;;;;;;4988899;28;20104;-71
2021/05/09 03:23:08;;;;;;;10.55;7.25;;;11.70;94.40;;;;;;4991381;28;20042;-71
2021/05/09 03:25:34;;;;;;;8.80;7.00;;;11.70;94.40;;;;;;5011963;28;20055;-71
2021/05/09 03:28:00;;;;;;;11.85;7.55;;;11.70;94.40;;;;;;5006823;28;20489;-71
2021/05/09 03:30:26;;;;;;;13.20;7.80;;;11.70;94.40;;;;;;5021816;28;20242;-72
2021/05/09 03:32:54;;;;;;;10.18;7.43;;;11.60;94.40;;;;;;5033201;28;20493;-71
2021/05/09 03:35:21;;;;;;;10.60;6.88;;;11.60;94.40;;;;;;5006373;28;20124;-72
2021/05/09 03:37:47;;;;;;;11.85;7.82;;;11.50;94.50;;;;;;5024795;28;20062;-71
2021/05/09 03:40:16;;;;;;;10.60;7.70;;;11.50;94.50;;;;;;5008073;28;20061;-71
2021/05/09 03:42:42;;;;;;;10.82;7.72;;;11.50;94.50;;;;;;5000721;28;20044;-72
2021/05/09 03:45:09;;;;;;;11.35;7.45;;;11.50;94.50;;;;;;5040088;28;20041;-72
2021/05/09 03:47:37;;;;;;;9.50;7.25;;;11.50;94.60;;;;;;4992286;28;20038;-72
2021/05/09 03:50:04;;;;;;;9.50;7.78;;;11.50;94.50;;;;;;5043380;28;20033;-72
2021/05/09 03:52:30;;;;;;;8.73;7.20;;;11.50;94.50;;;;;;5014943;28;20668;-71
2021/05/09 03:54:56;;;;;;;10.80;7.88;;;11.50;94.50;;;;;;5010274;28;20049;-72
2021/05/09 03:57:22;;;;;;;10.55;8.07;;;11.40;94.50;;;;;;5011673;28;20040;-72
2021/05/09 03:59:48;;;;;;;10.75;7.90;;;11.40;94.50;;;;;;5019577;28;20037;-72
2021/05/09 04:02:17;;;;;;;10.23;7.78;;;11.40;94.50;;;;;;5027041;28;20045;-72
2021/05/09 04:04:43;;;;;;;11.75;8.38;;;11.40;94.60;;;;;;4996756;28;20723;-72
2021/05/09 04:07:09;;;;;;;11.80;8.27;;;11.40;94.70;;;;;;5030360;28;20064;-71
2021/05/09 04:09:35;;;;;;;11.82;8.07;;;11.40;94.60;;;;;;5024014;28;20508;-71
2021/05/09 04:12:01;;;;;;;12.73;7.68;;;11.40;94.60;;;;;;5034389;28;20389;-72
2021/05/09 04:14:26;;;;;;;9.38;7.38;;;11.40;94.60;;;;;;4996982;28;20120;-72
2021/05/09 04:16:52;;;;;;;12.48;8.07;;;11.40;94.60;;;;;;5030465;28;20056;-72
2021/05/09 04:19:18;;;;;;;9.32;7.45;;;11.40;94.60;;;;;;5023377;28;21466;-72
2021/05/09 04:21:44;;;;;;;12.07;7.63;;;11.50;94.60;;;;;;4998502;28;20048;-72
2021/05/09 04:24:10;;;;;;;10.93;8.02;;;11.50;94.60;;;;;;5020724;28;20140;-71
2021/05/09 04:26:36;;;;;;;12.30;7.75;;;11.50;94.60;;;;;;4993870;28;20050;-72
2021/05/09 04:29:03;;;;;;;9.15;7.30;;;11.50;94.80;;;;;;4991402;28;20099;-72
2021/05/09 04:31:31;;;;;;;11.45;7.47;;;11.60;94.50;;;;;;4984983;28;20404;-72
2021/05/09 04:33:59;;;;;;;9.45;7.43;;;11.70;94.40;;;;;;4997595;28;20438;-71
2021/05/09 04:36:25;;;;;;;10.52;6.95;;;11.80;94.40;;;;;;5010430;28;20041;-73
2021/05/09 04:38:51;;;;;;;10.35;7.75;;;11.80;94.20;;;;;;5004293;28;20652;-71
2021/05/09 04:41:17;;;;;;;13.05;7.30;;;11.80;94.20;;;;;;5004598;28;20479;-72
2021/05/09 04:43:43;;;;;;;10.15;7.18;;;11.90;94.30;;;;;;4973562;28;20066;-72
2021/05/09 04:46:09;;;;;;;10.98;6.97;;;12.00;93.90;;;;;;4998094;28;20081;-73
2021/05/09 04:48:35;;;;;;;10.25;7.13;;;12.00;93.80;;;;;;4986742;28;20433;-73
2021/05/09 04:51:01;;;;;;;10.93;7.50;;;12.00;93.70;;;;;;5021588;28;20042;-72
2021/05/09 04:53:36;;;;;;;9.27;6.97;;;12.10;93.70;;;;;;4977187;28;20484;-72
2021/05/09 04:56:06;;;;;;;11.20;7.20;;;12.10;93.70;;;;;;5005803;28;20068;-72
2021/05/09 04:58:36;;;;;;;10.45;7.53;;;12.20;93.70;;;;;;5002183;28;20033;-72
2021/05/09 05:01:04;;;;;;;10.70;7.38;;;12.20;93.60;;;;;;5003766;28;20489;-72
2021/05/09 05:03:31;;;;;;;11.15;6.80;;;12.30;93.50;;;;;;5011123;28;20061;-73
2021/05/09 05:05:57;;;;;;;11.70;7.47;;;12.30;93.50;;;;;;4998729;28;20033;-72
2021/05/09 05:08:23;;;;;;;16.48;7.53;;;12.30;93.50;;;;;;5005620;28;20030;-72
2021/05/09 05:10:50;;;;;;;11.18;7.28;;;12.30;93.50;;;;;;4974440;28;20053;-72
2021/05/09 05:13:20;;;;;;;12.20;8.07;;;12.40;93.50;;;;;;4994512;28;20073;-72
2021/05/09 05:15:47;;;;;;;9.60;7.38;;;12.40;93.50;;;;;;4976101;28;21032;-72
2021/05/09 05:18:13;;;;;;;9.30;7.43;;;12.50;93.40;;;;;;4988216;28;20065;-72
2021/05/09 05:20:39;;;;;;;10.02;6.75;;;12.60;93.30;;;;;;4985815;28;20577;-72
2021/05/09 05:23:05;;;;;;;9.63;6.43;;;12.70;93.10;;;;;;5001827;28;20125;-72
2021/05/09 05:25:31;;;;;;;9.65;7.05;;;12.70;93.10;;;;;;5008637;28;20710;-72
2021/05/09 05:27:57;;;;;;;12.05;7.35;;;12.80;93.00;;;;;;4982005;28;20116;-72
2021/05/09 05:30:24;;;;;;;10.38;8.10;;;12.90;93.00;;;;;;4978777;28;20120;-72
2021/05/09 05:32:50;;;;;;;12.50;7.63;;;12.90;92.80;;;;;;5004271;28;20125;-73
2021/05/09 05:35:16;;;;;;;9.60;7.00;;;13.00;92.80;;;;;;4989742;28;20172;-72
2021/05/09 05:37:41;;;;;;;10.40;7.05;;;13.10;92.70;;;;;;4998135;28;20065;-71
2021/05/09 05:40:08;;;;;;;13.10;7.45;;;13.20;92.90;;;;;;4985098;28;20131;-72
2021/05/09 05:42:34;;;;;;;13.30;7.28;;;13.30;92.60;;;;;;5001563;28;20034;-73
2021/05/09 05:45:00;;;;;;;9.73;6.95;;;13.30;92.50;;;;;;4988279;28;20079;-72
2021/05/09 05:47:26;;;;;;;9.52;7.35;;;13.40;92.40;;;;;;4998108;28;20073;-72
2021/05/09 05:49:55;;;;;;;12.45;7.28;;;13.50;92.30;;;;;;4985589;28;20396;-71
2021/05/09 05:52:21;;;;;;;11.68;7.00;;;13.70;92.20;;;;;;4995688;28;20394;-71
2021/05/09 05:54:47;;;;;;;12.38;7.22;;;13.70;92.20;;;;;;5005652;28;20044;-71
2021/05/09 05:57:13;;;;;;;10.32;6.93;;;13.80;92.10;;;;;;5008767;28;20571;-71
2021/05/09 05:59:38;;;;;;;9.02;6.22;;;13.90;92.00;;;;;;5007218;28;20073;-71
2021/05/09 06:02:04;;;;;;;10.77;6.85;;;14.00;91.60;;;;;;4977669;28;20085;-72
2021/05/09 06:04:30;;;;;;;8.43;6.57;;;14.10;91.60;;;;;;4979235;28;20051;-72
2021/05/09 06:06:56;;;;;;;9.90;6.80;;;14.20;91.40;;;;;;4956285;28;20060;-72
2021/05/09 06:09:22;;;;;;;11.23;6.70;;;14.30;91.40;;;;;;4984571;28;20121;-72
2021/05/09 06:11:48;;;;;;;8.57;6.72;;;14.40;91.30;;;;;;4983723;28;20125;-73
2021/05/09 06:14:14;;;;;;;7.03;6.13;;;14.50;91.30;;;;;;4989971;28;20042;-73
2021/05/09 06:16:39;;;;;;;9.50;6.85;;;14.60;91.20;;;;;;5008170;28;20871;-72
2021/05/09 06:19:05;;;;;;;8.35;6.60;;;14.70;90.50;;;;;;4985406;28;20451;-72
2021/05/09 06:21:31;;;;;;;11.20;7.43;;;14.80;90.60;;;;;;5007511;28;20038;-71
2021/05/09 06:23:57;;;;;;;8.98;6.43;;;14.80;90.70;;;;;;5010593;28;20412;-71
2021/05/09 06:26:23;;;;;;;8.80;6.45;;;14.90;90.50;;;;;;5025281;28;20038;-71
2021/05/09 06:28:49;;;;;;;13.52;7.00;;;15.00;90.50;;;;;;5001598;28;20087;-72
2021/05/09 06:31:15;;;;;;;11.30;6.60;;;15.20;90.40;;;;;;5009680;28;20786;-71
2021/05/09 06:33:41;;;;;;;9.75;6.95;;;15.20;90.10;;;;;;4987434;28;20044;-71
2021/05/09 06:36:07;;;;;;;10.18;7.07;;;15.30;90.10;;;;;;5005705;28;20075;-71
2021/05/09 06:38:33;;;;;;;9.32;6.25;;;15.40;89.90;;;;;;5006678;28;20492;-73
2021/05/09 06:40:58;;;;;;;10.05;6.65;;;15.50;89.50;;;;;;4981555;28;20034;-72
2021/05/09 06:43:24;;;;;;;9.48;6.82;;;15.60;88.90;;;;;;4968138;28;20088;-71
2021/05/09 06:45:50;;;;;;;11.35;6.50;;;15.60;89.30;;;;;;4986645;28;20096;-72
2021/05/09 06:48:16;;;;;;;10.02;7.10;;;15.70;88.90;;;;;;4984791;28;21277;-72
2021/05/09 06:50:42;;;;;;;11.63;6.45;;;15.80;89.10;;;;;;4986264;28;20030;-72
2021/05/09 06:53:08;;;;;;;9.00;6.18;;;15.90;88.10;;;;;;5003665;28;21056;-71
2021/05/09 06:55:35;;;;;;;10.07;6.35;;;16.00;87.50;;;;;;4985085;28;20497;-72
2021/05/09 06:58:07;;;;;;;8.98;6.18;;;16.10;86.70;;;;;;5006424;28;20042;-71
2021/05/09 07:00:33;;;;;;;7.80;6.13;;;16.10;87.10;;;;;;4983280;28;20053;-72
2021/05/09 07:02:59;;;;;;;11.25;6.72;;;16.20;86.40;;;;;;5002043;28;20046;-72
2021/05/09 07:05:25;;;;;;;7.60;6.10;;;16.30;86.10;;;;;;4984258;28;20409;-72
2021/05/09 07:07:53;;;;;;;9.27;6.30;;;16.40;85.70;;;;;;5000795;28;20399;-71
2021/05/09 07:10:20;;;;;;;8.98;6.43;;;16.40;85.50;;;;;;5021209;28;20096;-71
2021/05/09 07:12:46;;;;;;;11.23;6.93;;;16.50;85.50;;;;;;4981883;28;20141;-72
2021/05/09 07:15:15;;;;;;;8.38;6.53;;;16.60;84.80;;;;;;4985692;28;20079;-72
2021/05/09 07:17:42;;;;;;;11.27;6.75;;;16.60;84.40;;;;;;4999665;28;21229;-71
2021/05/09 07:20:09;;;;;;;8.70;5.72;;;16.70;84.20;;;;;;4978645;28;20457;-72
2021/05/09 07:22:41;;;;;;;8.25;6.15;;;16.70;84.20;;;;;;5017009;28;20115;-72
2021/05/09 07:25:08;;;;;;;9.18;6.38;;;16.70;84.00;;;;;;4987553;28;20565;-73
2021/05/09 07:27:34;;;;;;;8.68;5.82;;;16.80;84.40;;;;;;4969125;28;20050;-73
2021/05/09 07:29:59;;;;;;;8.63;6.38;;;16.80;84.20;;;;;;5001228;28;20046;-71
2021/05/09 07:32:26;;;;;;;8.25;6.15;;;16.90;83.70;;;;;;4995026;28;20398;-72
2021/05/09 07:34:52;;;;;;;9.38;6.65;;;16.90;83.30;;;;;;4988262;28;20084;-72
2021/05/09 07:37:17;;;;;;;8.55;5.63;;;16.90;83.60;;;;;;5022550;28;20128;-73
2021/05/09 07:39:43;;;;;;;9.32;5.95;;;17.00;83.80;;;;;;4984123;28;20070;-72
2021/05/09 07:42:09;;;;;;;9.15;6.03;;;17.00;83.10;;;;;;5007745;28;20048;-72
2021/05/09 07:44:35;;;;;;;8.43;5.82;;;17.00;83.50;;;;;;4964295;28;21673;-72
2021/05/09 07:47:01;;;;;;;8.65;5.85;;;17.10;83.90;;;;;;4986147;28;20104;-72
2021/05/09 07:49:30;;;;;;;7.85;5.32;;;17.10;83.10;;;;;;4985103;28;20477;-71
2021/05/09 07:51:56;;;;;;;7.57;5.70;;;17.20;82.70;;;;;;4997243;28;20152;-72
2021/05/09 07:54:21;;;;;;;10.65;5.30;;;17.20;82.20;;;;;;5020562;28;20121;-72
2021/05/09 07:56:47;;;;;;;8.52;5.57;;;17.30;82.20;;;;;;4989722;28;20520;-73
2021/05/09 07:59:13;;;;;;;9.93;5.78;;;17.40;82.80;;;;;;4988366;28;20058;-72
2021/05/09 08:01:39;;;;;;;11.38;5.10;;;17.50;82.30;;;;;;4975468;28;20041;-73
2021/05/09 08:04:06;;;;;;;6.00;4.95;;;17.60;82.00;;;;;;4972462;28;20512;-72
2021/05/09 08:06:31;;;;;;;8.38;4.82;;;17.70;80.60;;;;;;4972464;28;20042;-73
2021/05/09 08:09:00;;;;;;;8.30;4.65;;;17.80;80.60;;;;;;4973271;28;20046;-73
2021/05/09 08:11:26;;;;;;;7.35;4.63;;;17.90;80.50;;;;;;4984107;28;20048;-73
2021/05/09 08:13:52;;;;;;;8.07;4.70;;;18.00;80.50;;;;;;4990523;28;20480;-73
2021/05/09 08:16:18;;;;;;;7.05;4.30;;;18.20;79.90;;;;;;4985444;28;20054;-73
2021/05/09 08:18:43;;;;;;;6.32;4.20;;;18.30;79.90;;;;;;5003438;28;20037;-72
2021/05/09 08:21:09;;;;;;;7.88;4.30;;;18.40;80.10;;;;;;5004355;28;20493;-73
2021/05/09 08:23:38;;;;;;;7.60;4.55;;;18.50;80.20;;;;;;4990411;28;20057;-73
2021/05/09 08:26:04;;;;;;;7.18;4.55;;;18.70;79.80;;;;;;5036906;28;20052;-73
2021/05/09 08:28:30;;;;;;;8.30;4.22;;;18.80;79.70;;;;;;5007327;28;20697;-73
2021/05/09 08:30:56;;;;;;;6.05;4.15;;;19.00;79.00;;;;;;5033027;28;20041;-74
2021/05/09 08:33:23;;;;;;;6.30;4.15;;;19.20;78.10;;;;;;5013596;28;20057;-73
2021/05/09 08:35:49;;;;;;;8.18;3.95;;;19.30;76.60;;;;;;4991432;28;20045;-73
2021/05/09 08:38:14;;;;;;;5.07;3.40;;;19.40;76.60;;;;;;5029989;28;20045;-73
2021/05/09 08:40:40;;;;;;;7.95;3.72;;;19.60;76.00;;;;;;5024410;28;20265;-73
2021/05/09 08:43:06;;;;;;;5.63;3.60;;;19.80;75.60;;;;;;5026503;28;20496;-74
2021/05/09 08:45:32;;;;;;;6.25;3.30;;;19.90;73.80;;;;;;4996765;28;20042;-72
2021/05/09 08:47:58;;;;;;;5.18;3.42;;;20.00;73.90;;;;;;5007716;28;20042;-73
2021/05/09 08:50:26;;;;;;;5.70;3.42;;;20.10;73.30;;;;;;5008949;28;20038;-74
2021/05/09 08:52:53;;;;;;;5.25;3.60;;;20.20;70.20;;;;;;4985511;28;20381;-74
2021/05/09 08:55:23;;;;;;;4.57;3.15;;;20.20;71.60;;;;;;4998288;28;20073;-73
2021/05/09 08:57:49;;;;;;;5.20;3.65;;;20.30;72.20;;;;;;5025091;28;20102;-73
2021/05/09 09:00:17;;;;;;;5.97;3.22;;;20.30;71.60;;;;;;5010135;28;20032;-73
2021/05/09 09:02:43;;;;;;;4.82;3.08;;;20.50;72.60;;;;;;5025927;28;20037;-74
2021/05/09 09:05:11;;;;;;;4.82;3.03;;;20.70;70.60;;;;;;5027587;28;20072;-74
2021/05/09 09:07:49;;;;;;;5.32;3.22;;;20.90;70.70;;;;;;5003643;28;20400;-74
2021/05/09 09:10:42;;;;;;;6.10;3.08;;;21.00;68.10;;;;;;5039239;28;20036;-74
2021/05/09 09:13:21;;;;;;;4.35;2.90;;;21.10;69.30;;;;;;5026120;28;20055;-74
2021/05/09 09:15:54;;;;;;;5.30;3.00;;;21.30;68.40;;;;;;5003100;28;20508;-74
2021/05/09 09:18:39;;;;;;;4.88;3.03;;;21.30;65.90;;;;;;5004776;28;20041;-75
2021/05/09 09:21:18;;;;;;;4.40;2.65;;;21.10;66.60;;;;;;5032625;28;20054;-73
2021/05/09 09:23:46;;;;;;;4.88;2.83;;;20.90;66.30;;;;;;5041420;28;20095;-73
2021/05/09 09:26:37;;;;;;;4.50;2.90;;;20.70;67.40;;;;;;5024546;28;20058;-73
2021/05/09 09:29:27;;;;;;;5.38;2.95;;;20.40;66.90;;;;;;5024688;28;20033;-72
2021/05/09 09:32:08;;;;;;;6.82;3.10;;;20.10;69.10;;;;;;5003555;28;20048;-72
2021/05/09 09:34:40;;;;;;;6.68;3.10;;;19.80;71.80;;;;;;5029156;28;20043;-72
2021/05/09 09:37:07;;;;;;;4.25;2.90;;;19.50;72.30;;;;;;4984651;28;20045;-73
2021/05/09 09:39:50;;;;;;;4.50;2.80;;;19.40;73.70;;;;;;5027208;28;20080;-73
2021/05/09 09:42:37;;;;;;;5.07;2.78;;;19.20;72.70;;;;;;4999047;28;20579;-73
2021/05/09 09:45:16;;;;;;;6.18;2.92;;;19.10;73.20;;;;;;4996386;28;20068;-73
2021/05/09 09:47:50;;;;;;;5.53;2.40;;;19.10;73.60;;;;;;4986096;28;20124;-73
2021/05/09 09:50:40;;;;;;;6.60;2.53;;;19.00;74.50;;;;;;5036778;28;20037;-73
2021/05/09 09:53:32;;;;;;;4.75;2.70;;;19.00;75.50;;;;;;5002640;28;20048;-73
2021/05/09 09:56:11;;;;;;;6.05;3.22;;;19.10;76.70;;;;;;5007024;28;20531;-73
2021/05/09 09:58:50;;;;;;;5.95;3.05;;;19.40;78.50;;;;;;5033293;28;20037;-72
2021/05/09 10:01:32;;;;;;;5.82;2.80;;;19.70;78.10;;;;;;5039396;28;20643;-73
2021/05/09 10:03:59;;;;;;;5.03;3.05;;;20.00;78.10;;;;;;5034636;28;20037;-72
2021/05/09 10:06:26;;;;;;;6.20;3.00;;;20.30;76.70;;;;;;5036780;28;20155;-73
2021/05/09 10:08:53;;;;;;;4.82;3.05;;;20.50;74.30;;;;;;5034921;28;20115;-72
2021/05/09 10:11:20;;;;;;;5.28;2.90;;;20.60;73.50;;;;;;4984395;28;20040;-72
2021/05/09 10:13:49;;;;;;;5.05;3.08;;;20.60;72.10;;;;;;5014771;28;20332;-73
2021/05/09 10:16:21;;;;;;;4.40;3.10;;;20.60;72.30;;;;;;5013897;28;20551;-72
2021/05/09 10:18:50;;;;;;;6.28;2.92;;;20.60;72.60;;;;;;5009682;28;20981;-73
2021/05/09 10:21:17;;;;;;;5.28;2.72;;;20.80;72.60;;;;;;5012922;28;20037;-72
2021/05/09 10:24:10;;;;;;;3.38;2.63;;;20.90;72.70;;;;;;5010837;28;20053;-75
2021/05/09 10:27:09;;;;;;;5.85;3.40;;;21.00;71.40;;;;;;5037958;28;20412;-71
2021/05/09 10:32:33;;;;;;;4.53;2.80;;;21.10;71.40;;;;;;5039049;28;20045;-72
2021/05/09 10:35:01;;;;;;;4.07;3.10;;;21.10;72.90;;;;;;4993438;28;20061;-72
2021/05/09 10:37:42;;;;;;;5.43;2.80;;;21.20;70.90;;;;;;5012276;28;20088;-72
2021/05/09 10:40:23;;;;;;;5.20;3.08;;;21.20;71.90;;;;;;4993523;28;20447;-72
2021/05/09 10:43:11;;;;;;;6.32;2.33;;;21.30;72.40;;;;;;5014214;28;20041;-74
2021/05/09 10:45:39;;;;;;;4.75;2.22;;;21.60;70.80;;;;;;5013130;28;20497;-72
2021/05/09 10:48:15;;;;;;;4.20;1.80;;;21.80;69.30;;;;;;5005966;28;20053;-73
2021/05/09 10:50:47;;;;;;;3.38;1.42;;;22.00;65.20;;;;;;5037752;28;20044;-72
2021/05/09 10:53:32;;;;;;;3.28;1.45;;;22.20;61.10;;;;;;5030356;28;20049;-72
2021/05/09 10:56:01;;;;;;;2.45;1.40;;;22.40;59.50;;;;;;5021187;28;20709;-72
2021/05/09 10:58:49;;;;;;;6.47;1.52;;;22.70;58.60;;;;;;5019207;28;20041;-73
2021/05/09 11:01:24;;;;;;;5.25;2.00;;;22.90;57.80;;;;;;5010127;28;20101;-72
2021/05/09 11:04:01;;;;;;;3.38;1.67;;;23.20;56.40;;;;;;5041210;28;20037;-73
2021/05/09 11:06:56;;;;;;;3.53;1.35;;;23.40;55.30;;;;;;5013041;28;20056;-73
2021/05/09 11:09:22;;;;;;;2.75;1.40;;;23.50;53.70;;;;;;5023577;28;20509;-72
2021/05/09 11:11:48;;;;;;;2.35;1.30;;;23.60;53.50;;;;;;5031127;28;20492;-72
2021/05/09 11:14:18;;;;;;;2.28;1.30;;;23.70;51.60;;;;;;5036673;28;20041;-72
2021/05/09 11:16:55;;;;;;;2.00;1.40;;;24.00;52.10;;;;;;5007217;28;20056;-72
2021/05/09 11:19:24;;;;;;;2.60;1.73;;;24.10;51.90;;;;;;5029945;28;20049;-72
2021/05/09 11:21:54;;;;;;;3.97;1.80;;;24.00;52.50;;;;;;5008201;28;20041;-73
2021/05/09 11:24:31;;;;;;;2.45;1.42;;;23.90;51.80;;;;;;5005975;28;20069;-71
2021/05/09 11:27:00;;;;;;;4.20;1.45;;;23.80;52.30;;;;;;4973465;28;20607;-72
2021/05/09 11:29:27;;;;;;;3.63;1.70;;;23.70;53.50;;;;;;4984703;28;20038;-72
2021/05/09 11:32:06;;;;;;;3.25;1.50;;;23.90;55.20;;;;;;5004914;28;20041;-72
2021/05/09 11:34:32;;;;;;;2.83;1.50;;;23.80;53.10;;;;;;5001819;28;20045;-72
2021/05/09 11:36:59;;;;;;;5.55;1.50;;;23.70;52.80;;;;;;4984200;28;20034;-72
2021/05/09 11:39:33;;;;;;;2.30;1.33;;;23.60;54.40;;;;;;4985405;28;20042;-72
2021/05/09 11:42:15;;;;;;;2.42;1.25;;;23.60;54.90;;;;;;4999910;28;20059;-73
2021/05/09 11:44:52;;;;;;;2.25;1.30;;;23.80;53.90;;;;;;4970121;28;20145;-72
2021/05/09 11:47:24;;;;;;;4.18;1.30;;;24.00;52.50;;;;;;4963951;28;20084;-74
2021/05/09 11:49:54;;;;;;;3.35;1.10;;;24.10;52.60;;;;;;4986953;28;20034;-72
2021/05/09 11:52:22;;;;;;;3.30;1.33;;;24.10;51.70;;;;;;4989559;28;20164;-73
2021/05/09 11:55:02;;;;;;;2.47;1.25;;;24.20;52.10;;;;;;4984629;28;20049;-71
2021/05/09 11:57:29;;;;;;;;;;;24.40;53.00;;;;;;4987572;28;20546;-72
2021/05/09 12:00:06;;;;;;;4.97;1.92;;;24.60;49.60;;;;;;4988520;28;20119;-73
2021/05/09 12:02:35;;;;;;;3.80;1.42;;;24.70;51.50;;;;;;4983752;28;20811;-73
2021/05/09 12:05:04;;;;;;;2.45;1.35;;;24.90;52.10;;;;;;5002653;28;20069;-73
2021/05/09 12:07:32;;;;;;;2.58;1.33;;;25.20;52.20;;;;;;5005883;28;20330;-75
2021/05/09 12:10:07;;;;;;;2.30;1.20;;;25.50;50.10;;;;;;4981866;28;20049;-74
2021/05/09 12:12:36;;;;;;;4.55;1.77;;;25.70;49.70;;;;;;5006159;28;20038;-74
2021/05/09 12:15:13;;;;;;;2.75;1.45;;;25.80;48.60;;;;;;5021465;28;20045;-73
2021/05/09 12:17:55;;;;;;;3.80;1.50;;;25.90;46.90;;;;;;5004110;28;20509;-73
2021/05/09 12:20:26;;;;;;;3.63;1.60;;;25.80;46.60;;;;;;4985505;28;20045;-72
2021/05/09 12:22:53;;;;;;;4.22;1.50;;;25.70;45.80;;;;;;4998998;28;20503;-73
2021/05/09 12:25:29;;;;;;;2.88;1.52;;;25.50;46.20;;;;;;4963164;28;20042;-73
2021/05/09 12:27:55;;;;;;;3.85;1.10;;;25.30;48.10;;;;;;5023006;28;20041;-73
2021/05/09 12:30:21;;;;;;;5.00;1.50;;;25.10;48.10;;;;;;5002784;28;20525;-74
2021/05/09 12:32:47;;;;;;;2.15;1.45;;;25.00;48.20;;;;;;4986459;28;20140;-75
2021/05/09 12:35:15;;;;;;;4.32;1.98;;;24.90;48.70;;;;;;5027849;28;20099;-74
2021/05/09 12:37:42;;;;;;;2.53;1.30;;;24.80;49.60;;;;;;5031111;28;20068;-73
2021/05/09 12:40:36;;;;;;;2.90;1.40;;;24.80;50.30;;;;;;5026124;28;20046;-73
2021/05/09 12:43:20;;;;;;;2.80;1.27;;;24.70;50.80;;;;;;5032301;28;20049;-74
2021/05/09 12:45:48;;;;;;;3.15;1.65;;;24.60;50.10;;;;;;5002392;28;20044;-75
2021/05/09 12:48:27;;;;;;;3.00;1.60;;;24.40;51.60;;;;;;5014118;28;20056;-76
2021/05/09 12:51:03;;;;;;;2.70;1.73;;;24.30;53.00;;;;;;5009115;28;20039;-75
2021/05/09 12:53:48;;;;;;;5.70;2.03;;;24.10;53.40;;;;;;5013894;28;20119;-75
2021/05/09 12:56:26;;;;;;;3.17;1.67;;;24.00;54.50;;;;;;5011432;28;20052;-76